createdAt,value
2017-06-22T00:01:38.401Z,63.30
2017-06-22T00:04:06.687Z,64.40
2017-06-22T00:06:35.087Z,65.80
2017-06-22T00:09:04.138Z,65.80
2017-06-22T00:11:33.688Z,65.70
2017-06-22T00:14:02.156Z,66.10
2017-06-22T00:16:30.472Z,66.90
2017-06-22T00:18:58.746Z,67.60
2017-06-22T00:21:27.094Z,67.30
2017-06-22T00:23:55.370Z,67.80
2017-06-22T00:26:23.668Z,68.80
2017-06-22T00:28:52.774Z,69.20
2017-06-22T00:31:21.055Z,68.30
2017-06-22T00:33:49.343Z,69.40
2017-06-22T00:36:17.700Z,69.70
2017-06-22T00:38:45.978Z,69.80
2017-06-22T00:43:44.210Z,69.70
2017-06-22T00:46:12.491Z,70.20
2017-06-22T00:48:40.775Z,70.30
2017-06-22T00:51:09.873Z,71.10
2017-06-22T00:53:38.178Z,71.50
2017-06-22T00:56:06.494Z,71.50
2017-06-22T00:58:36.351Z,71.80
2017-06-22T01:01:04.670Z,71.20
2017-06-22T01:03:32.962Z,71.10
2017-06-22T01:06:01.299Z,70.30
2017-06-22T01:08:29.578Z,70.70
2017-06-22T01:10:58.667Z,71.20
2017-06-22T01:13:26.987Z,71.30
2017-06-22T01:15:55.294Z,71.20
2017-06-22T01:18:23.596Z,70.60
2017-06-22T01:20:52.346Z,71.30
2017-06-22T01:23:22.220Z,71.40
2017-06-22T01:25:50.499Z,70.90
2017-06-22T01:28:19.194Z,70.00
2017-06-22T01:33:17.752Z,69.60
2017-06-22T01:35:46.074Z,69.60
2017-06-22T01:38:14.354Z,69.00
2017-06-22T01:40:44.163Z,68.90
2017-06-22T01:43:13.219Z,68.80
2017-06-22T01:45:41.891Z,68.20
2017-06-22T01:48:10.937Z,68.10
2017-06-22T01:50:39.279Z,68.00
2017-06-22T01:55:37.094Z,67.80
2017-06-22T01:58:05.717Z,67.50
2017-06-22T02:00:35.572Z,67.90
2017-06-22T02:03:04.049Z,67.80
2017-06-22T02:05:32.381Z,67.60
2017-06-22T02:08:02.191Z,67.60
2017-06-22T02:10:30.572Z,67.80
2017-06-22T02:12:58.902Z,67.60
2017-06-22T02:15:27.622Z,67.80
2017-06-22T02:17:57.054Z,67.60
2017-06-22T02:20:26.187Z,67.80
2017-06-22T02:22:55.975Z,67.70
2017-06-22T02:25:25.031Z,68.90
2017-06-22T02:30:22.904Z,67.50
2017-06-22T02:32:51.198Z,67.50
2017-06-22T02:35:19.711Z,67.30
2017-06-22T02:37:48.762Z,66.90
2017-06-22T02:40:17.059Z,66.90
2017-06-22T02:42:45.396Z,66.60
2017-06-22T02:45:13.683Z,66.40
2017-06-22T02:47:42.374Z,66.60
2017-06-22T02:50:12.396Z,66.10
2017-06-22T02:52:41.446Z,66.30
2017-06-22T02:57:39.791Z,66.50
2017-06-22T03:00:08.117Z,66.80
2017-06-22T03:02:37.939Z,67.00
2017-06-22T03:05:08.807Z,67.30
2017-06-22T03:07:49.819Z,67.20
2017-06-22T03:10:18.339Z,66.80
2017-06-22T03:12:46.635Z,67.00
2017-06-22T03:15:14.923Z,67.00
2017-06-22T03:17:43.262Z,67.20
2017-06-22T03:20:11.550Z,66.80
2017-06-22T03:22:40.979Z,67.00
2017-06-22T03:25:09.479Z,66.90
2017-06-22T03:27:37.793Z,66.80
2017-06-22T03:32:36.107Z,66.80
2017-06-22T03:35:04.437Z,66.70
2017-06-22T03:37:33.532Z,67.10
2017-06-22T03:40:01.896Z,67.10
2017-06-22T03:42:31.694Z,67.40
2017-06-22T03:44:59.986Z,67.60
2017-06-22T03:47:28.420Z,67.50
2017-06-22T03:49:56.710Z,67.50
2017-06-22T03:52:26.139Z,67.60
2017-06-22T03:54:55.246Z,68.20
2017-06-22T03:57:24.316Z,67.80
2017-06-22T03:59:52.642Z,67.80
2017-06-22T04:02:20.974Z,67.80
2017-06-22T04:04:49.262Z,67.90
2017-06-22T04:07:17.558Z,68.00
2017-06-22T04:09:47.562Z,68.10
2017-06-22T04:12:16.991Z,68.30
2017-06-22T04:14:46.051Z,68.70
2017-06-22T04:17:14.387Z,68.70
2017-06-22T04:22:13.339Z,69.00
2017-06-22T04:24:41.831Z,69.20
2017-06-22T04:27:11.634Z,68.40
2017-06-22T04:29:39.922Z,68.60
2017-06-22T04:32:08.298Z,69.10
2017-06-22T04:34:36.639Z,69.00
2017-06-22T04:37:04.963Z,68.40
2017-06-22T04:39:33.344Z,68.60
2017-06-22T04:42:02.406Z,68.00
2017-06-22T04:44:31.479Z,68.00
2017-06-22T04:49:29.744Z,67.50
2017-06-22T04:51:59.539Z,67.40
2017-06-22T04:54:27.894Z,67.70
2017-06-22T04:59:26.118Z,67.00
2017-06-22T05:01:55.255Z,67.00
2017-06-22T05:06:53.501Z,66.70
2017-06-22T05:09:21.852Z,66.80
2017-06-22T05:11:50.154Z,66.90
2017-06-22T05:16:48.718Z,66.40
2017-06-22T05:19:18.151Z,65.30
2017-06-22T05:21:46.444Z,65.90
2017-06-22T05:24:14.927Z,64.40
2017-06-22T05:26:44.731Z,65.00
2017-06-22T05:31:44.331Z,65.10
2017-06-22T05:34:13.400Z,64.30
2017-06-22T05:39:12.124Z,63.80
2017-06-22T05:41:40.839Z,63.30
2017-06-22T05:44:09.923Z,63.90
2017-06-22T05:46:39.410Z,63.20
2017-06-22T05:49:09.222Z,63.20
2017-06-22T05:51:37.540Z,62.70
2017-06-22T05:54:05.931Z,62.40
2017-06-22T05:56:35.017Z,62.70
2017-06-22T05:59:03.758Z,61.40
2017-06-22T06:01:32.092Z,61.60
2017-06-22T06:04:00.396Z,61.70
2017-06-22T06:06:28.683Z,60.50
2017-06-22T06:08:58.526Z,59.90
2017-06-22T06:11:26.825Z,59.50
2017-06-22T06:13:55.111Z,59.70
2017-06-22T06:16:23.451Z,59.70
2017-06-22T06:18:51.768Z,59.50
2017-06-22T06:21:20.851Z,58.80
2017-06-22T06:23:50.702Z,57.90
2017-06-22T06:26:20.132Z,58.60
2017-06-22T06:28:49.559Z,58.40
2017-06-22T06:31:17.910Z,58.10
2017-06-22T06:33:47.354Z,57.40
2017-06-22T06:36:15.643Z,57.70
2017-06-22T06:38:44.227Z,57.80
2017-06-22T06:41:12.523Z,55.50
2017-06-22T06:43:41.960Z,55.60
2017-06-22T06:46:10.379Z,54.40
2017-06-22T06:48:40.183Z,54.60
2017-06-22T06:51:08.479Z,53.80
2017-06-22T06:53:37.224Z,53.40
2017-06-22T06:56:05.563Z,52.70
2017-06-22T06:58:34.287Z,52.40
2017-06-22T07:01:02.640Z,50.40
2017-06-22T07:03:30.935Z,50.80
2017-06-22T07:05:59.990Z,49.80
2017-06-22T07:08:29.227Z,50.00
2017-06-22T07:10:57.514Z,48.70
2017-06-22T07:13:25.807Z,47.30
2017-06-22T07:15:55.247Z,48.50
2017-06-22T07:18:23.550Z,47.60
2017-06-22T07:20:51.852Z,47.00
2017-06-22T07:23:20.645Z,47.40
2017-06-22T07:25:48.944Z,48.10
2017-06-22T07:28:17.994Z,47.80
2017-06-22T07:30:46.335Z,47.90
2017-06-22T07:33:16.149Z,47.00
2017-06-22T07:35:44.826Z,47.60
2017-06-22T07:38:13.195Z,47.10
2017-06-22T07:40:41.875Z,47.40
2017-06-22T07:43:10.571Z,46.40
2017-06-22T07:45:39.671Z,47.30
2017-06-22T07:50:37.901Z,46.50
2017-06-22T07:53:07.039Z,47.80
2017-06-22T07:55:35.361Z,46.70
2017-06-22T07:58:03.684Z,46.50
2017-06-22T08:03:01.631Z,45.80
2017-06-22T08:05:29.919Z,46.40
2017-06-22T08:07:58.247Z,46.20
2017-06-22T08:10:26.923Z,44.20
2017-06-22T08:12:55.975Z,43.50
2017-06-22T08:15:24.892Z,44.00
2017-06-22T08:17:53.227Z,43.20
2017-06-22T08:20:21.936Z,41.80
2017-06-22T08:22:51.063Z,41.90
2017-06-22T08:25:19.461Z,40.80
2017-06-22T08:27:48.540Z,41.40
2017-06-22T08:30:17.319Z,41.10
2017-06-22T08:32:46.008Z,39.80
2017-06-22T08:35:14.711Z,39.10
2017-06-22T08:38:01.524Z,39.10
2017-06-22T08:40:29.831Z,39.20
2017-06-22T08:45:59.624Z,37.50
2017-06-22T08:48:29.416Z,36.50
2017-06-22T08:50:57.701Z,38.30
2017-06-22T08:53:26.443Z,37.70
2017-06-22T08:55:54.731Z,36.10
2017-06-22T08:58:24.526Z,35.90
2017-06-22T09:00:52.873Z,36.30
2017-06-22T09:03:21.963Z,35.90
2017-06-22T09:05:51.015Z,35.60
2017-06-22T09:10:49.635Z,36.20
2017-06-22T09:13:18.691Z,36.50
2017-06-22T09:15:47.019Z,36.50
2017-06-22T09:18:16.820Z,35.90
2017-06-22T09:23:15.806Z,36.10
2017-06-22T09:25:44.866Z,36.00
2017-06-22T09:28:14.288Z,36.20
2017-06-22T09:30:44.570Z,37.30
2017-06-22T09:33:13.615Z,35.80
2017-06-22T09:35:41.903Z,36.20
2017-06-22T09:38:10.315Z,36.00
2017-06-22T09:43:08.520Z,35.10
2017-06-22T09:45:37.020Z,34.50
2017-06-22T09:48:06.092Z,35.90
2017-06-22T09:53:04.459Z,33.50
2017-06-22T09:55:32.753Z,32.90
2017-06-22T09:58:01.036Z,33.70
2017-06-22T10:00:30.495Z,33.10
2017-06-22T10:02:58.774Z,33.10
2017-06-22T10:05:27.055Z,33.00
2017-06-22T10:07:55.659Z,32.90
2017-06-22T10:10:23.962Z,31.60
2017-06-22T10:12:52.263Z,32.50
2017-06-22T10:15:22.566Z,32.90
2017-06-22T10:17:50.880Z,33.00
2017-06-22T10:20:19.191Z,32.70
2017-06-22T10:27:46.591Z,33.00
2017-06-22T10:30:15.160Z,33.70
2017-06-22T10:32:44.211Z,33.50
2017-06-22T10:35:14.015Z,34.20
2017-06-22T10:37:42.363Z,34.20
2017-06-22T10:42:40.600Z,36.10
2017-06-22T10:45:10.731Z,35.00
2017-06-22T10:47:40.792Z,35.70
2017-06-22T10:50:09.093Z,35.10
2017-06-22T10:52:37.866Z,34.10
2017-06-22T10:57:35.714Z,34.30
2017-06-22T11:00:04.082Z,34.50
2017-06-22T11:05:02.368Z,35.50
2017-06-22T11:07:31.514Z,34.90
2017-06-22T11:09:59.836Z,34.20
2017-06-22T11:12:28.919Z,34.60
2017-06-22T11:14:58.040Z,34.70
2017-06-22T11:19:56.255Z,33.80
2017-06-22T11:22:24.595Z,35.10
2017-06-22T11:24:52.888Z,34.20
2017-06-22T11:27:21.180Z,33.40
2017-06-22T11:29:49.528Z,33.20
2017-06-22T11:34:47.373Z,33.10
2017-06-22T11:37:15.728Z,31.70
2017-06-22T11:39:44.010Z,32.40
2017-06-22T11:42:12.319Z,31.40
2017-06-22T11:44:41.812Z,32.60
2017-06-22T11:47:10.120Z,32.10
2017-06-22T11:49:38.427Z,31.80
2017-06-22T11:52:06.791Z,31.70
2017-06-22T11:54:35.881Z,31.10
2017-06-22T11:57:04.941Z,31.60
2017-06-22T11:59:34.101Z,29.80
2017-06-22T12:02:02.384Z,30.10
2017-06-22T12:04:32.219Z,30.00
2017-06-22T12:07:00.560Z,30.20
2017-06-22T12:09:28.873Z,30.00
2017-06-22T12:11:57.187Z,30.40
2017-06-22T12:14:25.948Z,29.40
2017-06-22T12:16:55.811Z,29.70
2017-06-22T12:19:25.731Z,29.60
2017-06-22T12:21:55.529Z,30.90
2017-06-22T12:24:24.631Z,29.60
2017-06-22T12:26:53.719Z,30.40
2017-06-22T12:31:51.663Z,29.30
2017-06-22T12:34:20.346Z,28.50
2017-06-22T12:36:49.075Z,28.40
2017-06-22T12:39:17.757Z,28.70
2017-06-22T12:44:16.011Z,29.10
2017-06-22T12:46:45.096Z,29.70
2017-06-22T12:49:13.408Z,29.30
2017-06-22T12:51:42.531Z,29.10
2017-06-22T12:54:12.347Z,29.00
2017-06-22T12:56:41.400Z,28.60
2017-06-22T12:59:09.734Z,28.50
2017-06-22T13:01:39.179Z,29.10
2017-06-22T13:04:07.504Z,29.40
2017-06-22T13:09:06.174Z,28.90
2017-06-22T13:11:36.078Z,29.40
2017-06-22T13:14:04.469Z,29.10
2017-06-22T13:16:33.566Z,30.80
2017-06-22T13:19:02.631Z,29.30
2017-06-22T13:21:31.823Z,29.30
2017-06-22T13:26:29.679Z,28.60
2017-06-22T13:28:58.022Z,28.90
2017-06-22T13:31:29.068Z,29.60
2017-06-22T13:33:58.176Z,28.70
2017-06-22T13:38:56.418Z,28.20
2017-06-22T13:41:25.479Z,29.30
2017-06-22T13:43:54.622Z,28.00
2017-06-22T13:46:23.331Z,27.70
2017-06-22T13:51:21.908Z,28.50
2017-06-22T13:53:50.226Z,28.20
2017-06-22T13:56:19.287Z,28.50
2017-06-22T13:58:47.650Z,28.80
2017-06-22T14:01:16.727Z,29.00
2017-06-22T14:03:45.418Z,29.50
2017-06-22T14:06:13.788Z,28.80
2017-06-22T14:08:42.127Z,28.80
2017-06-22T14:13:40.070Z,29.70
2017-06-22T14:16:09.126Z,29.80
2017-06-22T14:18:38.939Z,30.00
2017-06-22T14:21:07.295Z,30.20
2017-06-22T14:23:36.009Z,30.40
2017-06-22T14:26:05.039Z,30.50
2017-06-22T14:28:33.826Z,30.10
2017-06-22T14:31:03.331Z,30.20
2017-06-22T14:33:31.623Z,29.90
2017-06-22T14:36:00.003Z,30.50
2017-06-22T14:40:57.827Z,30.80
2017-06-22T14:43:27.343Z,31.30
2017-06-22T14:45:56.420Z,32.70
2017-06-22T14:48:24.716Z,32.30
2017-06-22T14:50:53.831Z,32.10
2017-06-22T14:53:22.141Z,32.60
2017-06-22T14:55:50.436Z,32.60
2017-06-22T14:58:19.185Z,33.00
2017-06-22T15:00:48.245Z,32.90
2017-06-22T15:03:16.531Z,33.80
2017-06-22T15:05:45.454Z,34.00
2017-06-22T15:08:14.874Z,33.50
2017-06-22T15:15:42.676Z,34.70
2017-06-22T15:18:10.987Z,34.30
2017-06-22T15:20:40.151Z,34.20
2017-06-22T15:25:38.395Z,34.90
2017-06-22T15:28:07.647Z,34.70
2017-06-22T15:30:37.514Z,34.70
2017-06-22T15:33:05.835Z,35.50
2017-06-22T15:35:34.228Z,35.50
2017-06-22T15:38:02.523Z,35.30
2017-06-22T15:40:32.316Z,35.40
2017-06-22T15:43:01.098Z,35.80
2017-06-22T15:48:05.362Z,35.90
2017-06-22T15:53:04.127Z,36.10
2017-06-22T15:58:02.615Z,35.90
2017-06-22T16:00:31.671Z,36.20
2017-06-22T16:03:00.352Z,36.50
2017-06-22T16:05:29.050Z,36.50
2017-06-22T16:07:57.347Z,36.80
2017-06-22T16:10:25.719Z,37.40
2017-06-22T16:12:55.155Z,39.70
2017-06-22T16:15:24.235Z,45.30
2017-06-22T16:17:53.781Z,51.50
2017-06-22T16:20:22.092Z,52.50
2017-06-22T16:22:50.390Z,55.60
2017-06-22T16:25:18.746Z,57.00
2017-06-22T16:27:48.174Z,57.40
2017-06-22T16:30:16.459Z,54.80
2017-06-22T16:35:15.023Z,58.90
2017-06-22T16:37:44.091Z,57.10
2017-06-22T16:40:12.452Z,56.40
2017-06-22T16:45:10.283Z,57.60
2017-06-22T16:47:39.829Z,57.50
2017-06-22T16:50:08.886Z,58.80
2017-06-22T16:55:07.171Z,57.70
2017-06-22T16:57:35.855Z,58.60
2017-06-22T17:00:04.157Z,57.60
2017-06-22T17:02:32.509Z,56.70
2017-06-22T17:05:01.563Z,56.80
2017-06-22T17:10:00.303Z,53.20
2017-06-22T17:14:58.483Z,54.10
2017-06-22T17:17:26.842Z,51.30
2017-06-22T17:19:55.153Z,52.90
2017-06-22T17:22:25.837Z,51.50
2017-06-22T17:24:54.587Z,51.20
2017-06-22T17:29:52.411Z,50.00
2017-06-22T17:32:20.823Z,49.50
2017-06-22T17:34:49.107Z,49.60
2017-06-22T17:39:47.852Z,50.10
2017-06-22T17:42:16.161Z,51.30
2017-06-22T17:44:44.431Z,52.00
2017-06-22T17:47:15.245Z,51.70
2017-06-22T17:49:43.524Z,53.00
2017-06-22T17:52:12.203Z,52.80
2017-06-22T17:57:10.635Z,53.60
2017-06-22T18:02:08.946Z,54.30
2017-06-22T18:04:37.295Z,53.90
2017-06-22T18:07:05.608Z,56.20
2017-06-22T18:09:34.541Z,54.60
2017-06-22T18:12:02.885Z,54.60
2017-06-22T18:14:32.675Z,55.40
2017-06-22T18:17:01.015Z,54.20
2017-06-22T18:21:59.199Z,54.20
2017-06-22T18:24:27.658Z,53.50
2017-06-22T18:26:55.942Z,53.10
2017-06-22T18:29:25.747Z,55.20
2017-06-22T18:31:54.091Z,54.90
2017-06-22T18:34:22.420Z,55.20
2017-06-22T18:36:50.721Z,55.90
2017-06-22T18:39:19.104Z,56.10
2017-06-22T18:41:48.890Z,56.10
2017-06-22T18:46:47.127Z,57.30
2017-06-22T18:51:44.935Z,58.60
2017-06-22T18:54:14.795Z,57.70
2017-06-22T18:56:44.591Z,57.70
2017-06-22T19:01:42.883Z,58.60
2017-06-22T19:04:11.190Z,59.50
2017-06-22T19:06:40.296Z,59.40
2017-06-22T19:09:10.229Z,59.70
2017-06-22T19:11:39.320Z,59.70
2017-06-22T19:14:07.635Z,59.40
2017-06-22T19:16:36.426Z,59.70
2017-06-22T19:19:06.273Z,59.90
2017-06-22T19:21:34.579Z,60.20
2017-06-22T19:24:03.401Z,60.30
2017-06-22T19:26:32.088Z,60.10
2017-06-22T19:31:30.452Z,60.30
2017-06-22T19:33:59.572Z,59.90
2017-06-22T19:36:28.655Z,59.60
2017-06-22T19:38:57.309Z,60.20
2017-06-22T19:41:26.836Z,60.40
2017-06-22T19:43:55.720Z,59.20
2017-06-22T19:46:24.878Z,59.90
2017-06-22T19:48:53.187Z,59.20
2017-06-22T19:51:21.511Z,59.70
2017-06-22T19:53:49.935Z,59.30
2017-06-22T19:56:18.222Z,59.50
2017-06-22T19:58:48.020Z,59.70
2017-06-22T20:01:16.347Z,59.10
2017-06-22T20:03:44.642Z,59.30
2017-06-22T20:06:12.934Z,59.10
2017-06-22T20:08:42.046Z,59.60
2017-06-22T20:11:11.100Z,59.80
2017-06-22T20:13:39.420Z,59.90
2017-06-22T20:16:08.160Z,60.00
2017-06-22T20:18:36.470Z,59.60
2017-06-22T20:21:04.782Z,59.70
2017-06-22T20:23:33.123Z,59.80
2017-06-22T20:26:01.442Z,60.80
2017-06-22T20:28:30.855Z,60.30
2017-06-22T20:30:59.186Z,60.00
2017-06-22T20:33:28.239Z,60.50
2017-06-22T20:35:58.027Z,60.90
2017-06-22T20:40:55.886Z,60.10
2017-06-22T20:43:24.212Z,60.80
2017-06-22T20:45:52.870Z,61.10
2017-06-22T20:48:21.567Z,60.80
2017-06-22T20:50:49.863Z,61.60
2017-06-22T20:53:18.567Z,61.80
2017-06-22T20:55:47.251Z,61.50
2017-06-22T20:58:16.303Z,61.60
2017-06-22T21:00:45.621Z,61.50
2017-06-22T21:03:15.888Z,61.90
2017-06-22T21:05:45.310Z,62.30
2017-06-22T21:08:14.450Z,62.00
2017-06-22T21:10:42.739Z,62.70
2017-06-22T21:13:11.026Z,61.70
2017-06-22T21:15:39.642Z,61.50
2017-06-22T21:18:07.964Z,61.40
2017-06-22T21:20:36.289Z,60.60
2017-06-22T21:28:04.142Z,60.20
2017-06-22T21:33:02.804Z,60.20
2017-06-22T21:35:31.853Z,59.90
2017-06-22T21:38:00.214Z,60.70
2017-06-22T21:42:58.782Z,59.70
2017-06-22T21:45:28.260Z,60.10
2017-06-22T21:47:56.543Z,59.60
2017-06-22T21:50:24.831Z,59.00
2017-06-22T21:52:54.771Z,59.40
2017-06-22T21:55:23.063Z,59.80
2017-06-22T21:57:51.352Z,60.00
2017-06-22T22:02:51.461Z,60.50
2017-06-22T22:07:50.095Z,61.30
2017-06-22T22:10:18.377Z,61.20
2017-06-22T22:15:16.642Z,61.80
2017-06-22T22:17:45.695Z,62.30
2017-06-22T22:20:13.984Z,62.50
2017-06-22T22:22:42.349Z,62.70
2017-06-22T22:25:10.659Z,63.30
2017-06-22T22:27:40.187Z,62.80
2017-06-22T22:30:08.584Z,64.00
2017-06-22T22:32:37.284Z,63.10
2017-06-22T22:35:05.599Z,63.90
2017-06-22T22:37:34.755Z,64.10
2017-06-22T22:40:03.047Z,64.10
2017-06-22T22:45:01.939Z,64.50
2017-06-22T22:47:30.224Z,64.00
2017-06-22T22:50:10.175Z,64.00
2017-06-22T22:52:39.249Z,64.10
2017-06-22T22:55:08.319Z,64.80
2017-06-22T22:57:37.089Z,64.80
2017-06-22T23:00:05.859Z,65.30
2017-06-22T23:05:04.312Z,65.30
2017-06-22T23:07:32.598Z,65.30
2017-06-22T23:10:00.884Z,65.60
2017-06-22T23:12:30.347Z,65.60
2017-06-22T23:14:59.030Z,65.80
2017-06-22T23:17:27.322Z,65.50
2017-06-22T23:19:57.251Z,66.10
2017-06-22T23:27:25.422Z,66.20
2017-06-22T23:29:53.727Z,66.00
2017-06-22T23:32:22.018Z,66.20
2017-06-22T23:34:51.150Z,65.80
2017-06-22T23:37:20.203Z,66.10
2017-06-22T23:39:48.503Z,65.70
2017-06-22T23:42:17.597Z,66.50
2017-06-22T23:44:45.886Z,65.90
2017-06-22T23:47:15.312Z,65.80
2017-06-22T23:49:44.042Z,65.80
2017-06-22T23:54:42.260Z,66.20
2017-06-22T23:57:10.691Z,66.50
2017-06-22T23:59:39.018Z,66.70
